Time;durP1;ratioP1;P1;durP2;ratioP2;P2;SDS_P1;SDS_P2;PMS_P1;PMS_P2;Temp;Humidity;BMP_temperature;BMP_pressure;BME280_temperature;BME280_humidity;BME280_pressure;Samples;Min_cycle;Max_cycle;Signal;HPM_P1;HPM_P2
2022/07/19 00:00:37;;;;;;;10.57;2.37;;;;;;;;;;5007622;28;20446;-69
2022/07/19 00:03:04;;;;;;;9.17;2.03;;;;;;;;;;5007119;28;20471;-69
2022/07/19 00:05:31;;;;;;;9.73;2.40;;;;;;;;;;5007665;28;20454;-69
2022/07/19 00:07:59;;;;;;;9.00;2.00;;;;;;;;;;4992580;28;20487;-69
2022/07/19 00:10:27;;;;;;;9.40;2.20;;;;;;;;;;4997479;28;20452;-69
2022/07/19 00:12:54;;;;;;;10.23;2.43;;;;;;;;;;4999199;28;20468;-69
2022/07/19 00:15:21;;;;;;;8.57;2.00;;;;;;;;;;5006507;28;20445;-69
2022/07/19 00:17:49;;;;;;;10.50;2.20;;;;;;;;;;4995265;28;20460;-69
2022/07/19 00:20:18;;;;;;;10.20;1.87;;;;;;;;;;4999416;28;20870;-69
2022/07/19 00:22:45;;;;;;;10.30;2.17;;;;;;;;;;5007159;28;20447;-69
2022/07/19 00:25:13;;;;;;;12.40;2.33;;;;;;;;;;5002933;28;20460;-68
2022/07/19 00:27:42;;;;;;;9.07;2.00;;;;;;;;;;4998321;28;20539;-68
2022/07/19 00:30:09;;;;;;;8.87;2.10;;;;;;;;;;5005453;28;20464;-69
2022/07/19 00:32:37;;;;;;;9.50;2.40;;;;;;;;;;5002429;28;20453;-68
2022/07/19 00:35:04;;;;;;;9.13;2.23;;;;;;;;;;5008655;28;20927;-69
2022/07/19 00:37:31;;;;;;;9.40;2.30;;;;;;;;;;4994967;28;20462;-68
2022/07/19 00:39:58;;;;;;;8.67;2.10;;;;;;;;;;5012236;28;20456;-70
2022/07/19 00:42:25;;;;;;;9.80;2.40;;;;;;;;;;5010325;28;20448;-70
2022/07/19 00:44:54;;;;;;;8.83;2.40;;;;;;;;;;5011743;28;20448;-69
2022/07/19 00:47:21;;;;;;;10.03;2.80;;;;;;;;;;5002195;28;20456;-70
2022/07/19 00:49:49;;;;;;;9.20;2.03;;;;;;;;;;5010351;28;20448;-69
2022/07/19 00:52:17;;;;;;;8.40;2.20;;;;;;;;;;5000671;28;20820;-69
2022/07/19 00:54:44;;;;;;;8.80;2.50;;;;;;;;;;5010834;28;20484;-69
2022/07/19 00:57:12;;;;;;;11.13;2.80;;;;;;;;;;4999512;28;20482;-69
2022/07/19 00:59:40;;;;;;;9.47;2.30;;;;;;;;;;5001476;28;20458;-69
2022/07/19 01:02:08;;;;;;;9.77;2.40;;;;;;;;;;5004433;28;20535;-69
2022/07/19 01:04:36;;;;;;;9.60;2.63;;;;;;;;;;5007700;28;20456;-68
2022/07/19 01:07:03;;;;;;;8.60;1.97;;;;;;;;;;4992287;28;20453;-70
2022/07/19 01:09:30;;;;;;;8.80;2.20;;;;;;;;;;5001640;28;20468;-68
2022/07/19 01:11:58;;;;;;;8.80;2.30;;;;;;;;;;5011153;28;20541;-70
2022/07/19 01:14:25;;;;;;;8.70;2.00;;;;;;;;;;5001024;28;20483;-70
2022/07/19 01:16:52;;;;;;;10.10;2.37;;;;;;;;;;4997096;28;20529;-69
2022/07/19 01:19:21;;;;;;;15.23;2.40;;;;;;;;;;5003013;28;20458;-70
2022/07/19 01:21:49;;;;;;;8.90;2.17;;;;;;;;;;4992818;28;20524;-70
2022/07/19 01:24:16;;;;;;;8.80;2.43;;;;;;;;;;4998650;28;20449;-69
2022/07/19 01:26:44;;;;;;;9.60;2.40;;;;;;;;;;5002477;28;20480;-69
2022/07/19 01:29:15;;;;;;;8.83;2.10;;;;;;;;;;5000382;28;20540;-69
2022/07/19 01:31:42;;;;;;;8.80;2.33;;;;;;;;;;4991909;28;20488;-69
2022/07/19 01:34:10;;;;;;;10.13;2.63;;;;;;;;;;4996531;28;20507;-69
2022/07/19 01:36:37;;;;;;;9.07;2.47;;;;;;;;;;4993608;28;20953;-69
2022/07/19 01:39:05;;;;;;;8.60;2.20;;;;;;;;;;4994742;28;20453;-69
2022/07/19 01:41:32;;;;;;;9.43;2.03;;;;;;;;;;5009226;28;20453;-69
2022/07/19 01:43:59;;;;;;;9.67;2.73;;;;;;;;;;5009936;28;20456;-69
2022/07/19 01:46:27;;;;;;;8.37;2.37;;;;;;;;;;4999833;28;20450;-69
2022/07/19 01:48:54;;;;;;;9.53;2.63;;;;;;;;;;4994445;28;20489;-70
2022/07/19 01:51:21;;;;;;;9.70;2.03;;;;;;;;;;4992268;28;21004;-70
2022/07/19 01:53:48;;;;;;;10.60;2.47;;;;;;;;;;4998266;28;20547;-70
2022/07/19 01:56:17;;;;;;;8.43;2.03;;;;;;;;;;5000732;28;20480;-70
2022/07/19 01:58:44;;;;;;;8.80;2.67;;;;;;;;;;4998874;28;20448;-70
2022/07/19 02:01:11;;;;;;;13.10;3.10;;;;;;;;;;4997719;28;20445;-70
2022/07/19 02:03:38;;;;;;;10.00;2.67;;;;;;;;;;5006804;28;20496;-70
2022/07/19 02:06:05;;;;;;;9.57;2.43;;;;;;;;;;5005975;28;20452;-70
2022/07/19 02:08:33;;;;;;;9.33;2.20;;;;;;;;;;5001426;28;20457;-69
2022/07/19 02:11:34;;;;;;;9.13;2.27;;;;;;;;;;5012212;28;20800;-69
2022/07/19 02:13:48;;;;;;;11.00;3.30;;;;;;;;;;4992512;28;20479;-70
2022/07/19 02:16:16;;;;;;;9.60;2.80;;;;;;;;;;5004304;28;20449;-69
2022/07/19 02:18:43;;;;;;;9.03;2.40;;;;;;;;;;5002313;28;20463;-69
2022/07/19 02:21:10;;;;;;;10.10;2.40;;;;;;;;;;4999583;28;20530;-69
2022/07/19 02:23:37;;;;;;;8.67;2.00;;;;;;;;;;5006464;28;20451;-69
2022/07/19 02:26:04;;;;;;;10.10;2.10;;;;;;;;;;5009305;28;20510;-69
2022/07/19 02:28:31;;;;;;;9.13;2.70;;;;;;;;;;5001505;28;20471;-69
2022/07/19 02:31:00;;;;;;;8.70;2.00;;;;;;;;;;5008280;28;20955;-71
2022/07/19 02:33:27;;;;;;;9.30;2.40;;;;;;;;;;4986102;28;20944;-70
2022/07/19 02:35:54;;;;;;;9.97;2.63;;;;;;;;;;4997020;28;20459;-69
2022/07/19 02:38:21;;;;;;;9.50;2.43;;;;;;;;;;5005276;28;20455;-69
2022/07/19 02:40:48;;;;;;;9.37;2.23;;;;;;;;;;5002707;28;20488;-69
2022/07/19 02:43:16;;;;;;;8.87;2.20;;;;;;;;;;5005532;28;20452;-69
2022/07/19 02:45:43;;;;;;;9.30;2.80;;;;;;;;;;5002797;28;20456;-69
2022/07/19 02:48:12;;;;;;;9.10;2.20;;;;;;;;;;5005739;28;20544;-69
2022/07/19 02:50:39;;;;;;;9.30;2.60;;;;;;;;;;5001190;28;20463;-69
2022/07/19 02:53:06;;;;;;;10.30;2.37;;;;;;;;;;4993859;28;20445;-69
2022/07/19 02:55:33;;;;;;;9.70;2.30;;;;;;;;;;5002849;28;20500;-70
2022/07/19 02:58:00;;;;;;;9.00;2.70;;;;;;;;;;4996151;28;20532;-69
2022/07/19 03:00:28;;;;;;;10.70;2.87;;;;;;;;;;5004713;28;20550;-68
2022/07/19 03:03:43;;;;;;;10.10;2.73;;;;;;;;;;5000654;28;20484;-70
2022/07/19 03:05:44;;;;;;;8.23;2.20;;;;;;;;;;5003116;28;20445;-69
2022/07/19 03:08:11;;;;;;;10.93;2.63;;;;;;;;;;4999525;28;20559;-69
2022/07/19 03:10:39;;;;;;;9.20;2.73;;;;;;;;;;4993647;28;20449;-69
2022/07/19 03:13:06;;;;;;;13.00;2.37;;;;;;;;;;4998883;28;20460;-69
2022/07/19 03:15:33;;;;;;;9.43;2.27;;;;;;;;;;5011304;28;20664;-68
2022/07/19 03:18:00;;;;;;;11.63;2.53;;;;;;;;;;5010248;28;20459;-69
2022/07/19 03:20:27;;;;;;;8.60;2.27;;;;;;;;;;5013345;28;20481;-69
2022/07/19 03:22:56;;;;;;;8.80;2.40;;;;;;;;;;5012416;28;20462;-69
2022/07/19 03:25:23;;;;;;;10.00;2.73;;;;;;;;;;5013178;28;20455;-68
2022/07/19 03:27:50;;;;;;;9.13;2.47;;;;;;;;;;5006947;28;20469;-69
2022/07/19 03:30:18;;;;;;;8.57;2.23;;;;;;;;;;4996846;28;20449;-69
2022/07/19 03:32:45;;;;;;;8.33;2.27;;;;;;;;;;5010256;28;20947;-69
2022/07/19 03:35:12;;;;;;;9.83;2.60;;;;;;;;;;5004346;28;20830;-69
2022/07/19 03:37:39;;;;;;;13.00;2.70;;;;;;;;;;4997767;28;20462;-70
2022/07/19 03:40:09;;;;;;;9.33;2.30;;;;;;;;;;5004236;28;20555;-69
2022/07/19 03:42:36;;;;;;;8.67;2.37;;;;;;;;;;5003151;28;20452;-69
2022/07/19 03:45:03;;;;;;;10.43;3.30;;;;;;;;;;5012069;28;20456;-71
2022/07/19 03:47:30;;;;;;;8.37;2.13;;;;;;;;;;4994847;28;20447;-69
2022/07/19 03:49:58;;;;;;;8.57;2.03;;;;;;;;;;4998761;28;20456;-70
2022/07/19 03:52:25;;;;;;;9.50;2.67;;;;;;;;;;5005074;28;20454;-70
2022/07/19 03:54:52;;;;;;;8.80;2.70;;;;;;;;;;5004114;28;20570;-70
2022/07/19 03:57:21;;;;;;;9.60;2.63;;;;;;;;;;4995558;28;20490;-70
2022/07/19 03:59:48;;;;;;;8.13;2.20;;;;;;;;;;4992249;28;20870;-69
2022/07/19 04:02:15;;;;;;;7.80;1.90;;;;;;;;;;5008462;28;20455;-70
2022/07/19 04:04:42;;;;;;;8.63;1.97;;;;;;;;;;5007442;28;20551;-70
2022/07/19 04:07:09;;;;;;;10.37;2.20;;;;;;;;;;4995261;28;20953;-69
2022/07/19 04:09:36;;;;;;;8.23;2.33;;;;;;;;;;4999318;28;20537;-70
2022/07/19 04:12:04;;;;;;;8.87;2.27;;;;;;;;;;5000485;28;20452;-70
2022/07/19 04:14:32;;;;;;;8.47;2.43;;;;;;;;;;5010951;28;20548;-69
2022/07/19 04:16:59;;;;;;;8.53;2.33;;;;;;;;;;5001894;28;20452;-70
2022/07/19 04:19:27;;;;;;;10.53;2.00;;;;;;;;;;4995307;28;20471;-70
2022/07/19 04:21:54;;;;;;;10.23;2.40;;;;;;;;;;4992594;28;20499;-71
2022/07/19 04:24:21;;;;;;;9.93;2.23;;;;;;;;;;5008330;28;20538;-72
2022/07/19 04:26:48;;;;;;;8.63;2.63;;;;;;;;;;5004947;28;20502;-69
2022/07/19 04:29:15;;;;;;;8.47;2.53;;;;;;;;;;5007558;28;20456;-70
2022/07/19 04:31:44;;;;;;;8.80;2.57;;;;;;;;;;5011663;28;20475;-67
2022/07/19 04:34:11;;;;;;;9.30;2.33;;;;;;;;;;5012378;28;20830;-72
2022/07/19 04:36:38;;;;;;;9.60;2.47;;;;;;;;;;4999749;28;20494;-72
2022/07/19 04:39:05;;;;;;;8.60;2.50;;;;;;;;;;4998892;28;20453;-72
2022/07/19 04:41:32;;;;;;;8.67;2.73;;;;;;;;;;5011200;28;20492;-69
2022/07/19 04:43:59;;;;;;;8.50;2.70;;;;;;;;;;5012020;28;20455;-68
2022/07/19 04:46:27;;;;;;;9.37;2.87;;;;;;;;;;5007414;28;20453;-71
2022/07/19 04:48:55;;;;;;;12.30;3.87;;;;;;;;;;4995951;28;20459;-71
2022/07/19 04:51:22;;;;;;;8.97;2.77;;;;;;;;;;5002431;28;20473;-73
2022/07/19 04:53:49;;;;;;;8.57;2.63;;;;;;;;;;5015096;28;20529;-73
2022/07/19 04:56:16;;;;;;;8.63;2.53;;;;;;;;;;5014880;28;20525;-73
2022/07/19 04:58:43;;;;;;;10.70;2.53;;;;;;;;;;5005133;28;20445;-73
2022/07/19 05:01:11;;;;;;;8.00;2.50;;;;;;;;;;5001606;28;20780;-73
2022/07/19 05:03:38;;;;;;;9.40;2.43;;;;;;;;;;5007116;28;20488;-70
2022/07/19 05:06:06;;;;;;;8.20;2.30;;;;;;;;;;5001487;28;20456;-70
2022/07/19 05:08:34;;;;;;;9.17;2.33;;;;;;;;;;4998259;28;20894;-72
2022/07/19 05:11:01;;;;;;;8.60;2.70;;;;;;;;;;5004235;28;20456;-72
2022/07/19 05:13:28;;;;;;;9.87;2.30;;;;;;;;;;5005303;28;20480;-73
2022/07/19 05:15:55;;;;;;;8.30;2.10;;;;;;;;;;5003670;28;20988;-73
2022/07/19 05:18:22;;;;;;;8.83;2.10;;;;;;;;;;5011233;28;20538;-73
2022/07/19 05:20:49;;;;;;;10.17;2.77;;;;;;;;;;5011083;28;20812;-73
2022/07/19 05:23:18;;;;;;;8.43;2.33;;;;;;;;;;5011611;28;20464;-73
2022/07/19 05:25:45;;;;;;;8.03;2.23;;;;;;;;;;5010830;28;20468;-72
2022/07/19 05:28:12;;;;;;;9.30;2.30;;;;;;;;;;5011530;28;20457;-72
2022/07/19 05:30:41;;;;;;;10.73;2.70;;;;;;;;;;5010816;28;20448;-72
2022/07/19 05:33:08;;;;;;;8.60;1.93;;;;;;;;;;5012392;28;20452;-73
2022/07/19 05:35:35;;;;;;;8.80;2.37;;;;;;;;;;5011060;28;20491;-72
2022/07/19 05:38:03;;;;;;;10.90;2.17;;;;;;;;;;5007618;28;20817;-71
2022/07/19 05:40:31;;;;;;;9.80;2.67;;;;;;;;;;5014659;28;20563;-72
2022/07/19 05:42:58;;;;;;;9.20;2.77;;;;;;;;;;5015534;28;20859;-74
2022/07/19 05:45:25;;;;;;;10.40;2.70;;;;;;;;;;5015233;28;20531;-73
2022/07/19 05:47:53;;;;;;;9.73;2.50;;;;;;;;;;5014716;28;20459;-72
2022/07/19 05:50:20;;;;;;;8.97;2.40;;;;;;;;;;5014855;28;20766;-73
2022/07/19 05:52:47;;;;;;;10.10;2.30;;;;;;;;;;5014928;28;20455;-73
2022/07/19 05:55:14;;;;;;;9.17;2.60;;;;;;;;;;5014984;28;20510;-72
2022/07/19 05:57:43;;;;;;;12.03;2.93;;;;;;;;;;5014086;28;20511;-72
2022/07/19 06:00:10;;;;;;;9.73;3.10;;;;;;;;;;5014477;28;20449;-72
2022/07/19 06:02:37;;;;;;;9.17;2.80;;;;;;;;;;5014241;28;20462;-72
2022/07/19 06:05:05;;;;;;;9.70;2.60;;;;;;;;;;5014682;28;20460;-73
2022/07/19 06:07:32;;;;;;;9.10;2.70;;;;;;;;;;5011098;28;20448;-73
2022/07/19 06:10:01;;;;;;;9.97;2.90;;;;;;;;;;5014274;28;20461;-73
2022/07/19 06:12:29;;;;;;;10.10;2.73;;;;;;;;;;5015073;28;20459;-73
2022/07/19 06:14:57;;;;;;;9.80;2.80;;;23.70;1.00;;;;;;5014555;28;20452;-73
2022/07/19 06:17:24;;;;;;;8.77;2.50;;;21.40;99.90;;;;;;5014590;28;20810;-72
2022/07/19 06:19:50;;;;;;;10.13;2.60;;;21.50;99.90;;;;;;5013686;28;20455;-71
2022/07/19 06:22:17;;;;;;;8.63;2.30;;;21.60;99.90;;;;;;5014506;28;20543;-71
2022/07/19 06:24:44;;;;;;;9.23;2.70;;;21.60;99.90;;;;;;5014093;28;20543;-72
2022/07/19 06:27:11;;;;;;;9.77;2.60;;;21.70;99.90;;;;;;5014714;28;20456;-73
2022/07/19 06:29:38;;;;;;;10.40;3.13;;;;;;;;;;5013574;28;20532;-71
2022/07/19 06:32:07;;;;;;;8.23;2.40;;;;;;;;;;5014412;28;20455;-71
2022/07/19 06:34:34;;;;;;;9.00;2.10;;;;;;;;;;5013560;28;20459;-72
2022/07/19 06:37:01;;;;;;;9.07;2.27;;;;;;;;;;5002341;28;20507;-72
2022/07/19 06:39:28;;;;;;;9.73;2.40;;;;;;;;;;5014314;28;20459;-73
2022/07/19 06:41:56;;;;;;;8.20;1.77;;;;;;;;;;5014395;28;20561;-73
2022/07/19 06:44:23;;;;;;;8.50;1.90;;;;;;;;;;5013853;28;20459;-73
2022/07/19 06:46:50;;;;;;;8.50;1.70;;;;;;;;;;5013543;28;20819;-73
2022/07/19 06:49:18;;;;;;;9.60;2.00;;;;;;;;;;5013902;28;20543;-73
2022/07/19 06:51:46;;;;;;;9.10;2.07;;;;;;;;;;5013414;28;20452;-73
2022/07/19 06:54:13;;;;;;;9.60;1.90;;;;;;;;;;5014201;28;20780;-72
2022/07/19 06:56:40;;;;;;;9.30;2.03;;;;;;;;;;5013170;28;20514;-73
2022/07/19 06:59:07;;;;;;;8.67;1.77;;;;;;;;;;5013622;28;20464;-73
2022/07/19 07:01:34;;;;;;;8.63;1.83;;;;;;;;;;5013330;28;20449;-73
2022/07/19 07:04:01;;;;;;;8.90;1.67;;;;;;;;;;5013861;28;20821;-72
2022/07/19 07:06:30;;;;;;;9.33;2.20;;;;;;;;;;5013388;28;20452;-73
2022/07/19 07:08:57;;;;;;;9.13;2.00;;;;;;;;;;5013325;28;20926;-73
2022/07/19 07:11:25;;;;;;;9.03;2.10;;;;;;;;;;5013476;28;20544;-73
2022/07/19 07:13:52;;;;;;;9.07;1.90;;;;;;;;;;5013284;28;20452;-74
2022/07/19 07:16:19;;;;;;;9.63;2.10;;;;;;;;;;5013219;28;20480;-73
2022/07/19 07:18:46;;;;;;;9.40;2.17;;;;;;;;;;5012750;28;20878;-73
2022/07/19 07:21:13;;;;;;;10.50;2.00;;;;;;;;;;5013539;28;20445;-73
2022/07/19 07:23:42;;;;;;;13.07;2.20;;;;;;;;;;5013078;28;20615;-73
2022/07/19 07:26:09;;;;;;;9.17;2.00;;;;;;;;;;5013450;28;20814;-73
2022/07/19 07:28:37;;;;;;;9.67;1.90;;;;;;;;;;5012327;28;20944;-74
2022/07/19 07:31:04;;;;;;;9.90;1.87;;;;;;;;;;5013424;28;20539;-73
2022/07/19 07:33:31;;;;;;;9.30;1.93;;;;;;;;;;5012784;28;20449;-72
2022/07/19 07:35:58;;;;;;;11.60;2.07;;;;;;;;;;5006226;28;20840;-73
2022/07/19 07:38:25;;;;;;;10.90;2.10;;;;;;;;;;5008113;28;20940;-73
2022/07/19 07:40:54;;;;;;;9.77;1.90;;;;;;;;;;5012461;28;20954;-73
2022/07/19 07:43:21;;;;;;;9.93;2.17;;;;;;;;;;5012997;28;20460;-73
2022/07/19 07:45:48;;;;;;;11.70;2.30;;;;;;;;;;5012574;28;20455;-73
2022/07/19 07:48:15;;;;;;;9.17;1.80;;;;;;;;;;5012788;28;20445;-73
2022/07/19 07:50:43;;;;;;;10.40;1.93;;;;;;;;;;5011971;28;20453;-73
2022/07/19 07:53:10;;;;;;;9.97;2.83;;;;;;;;;;5012915;28;20535;-73
2022/07/19 07:55:39;;;;;;;10.67;2.53;;;;;;;;;;4985498;28;20855;-73
2022/07/19 07:58:08;;;;;;;10.63;2.20;;;;;;;;;;5012743;28;20811;-73
2022/07/19 08:00:35;;;;;;;9.57;1.73;;;;;;;;;;5012415;28;20926;-73
2022/07/19 08:03:02;;;;;;;10.70;2.27;;;;;;;;;;5012813;28;20448;-72
2022/07/19 08:05:30;;;;;;;10.57;2.40;;;;;;;;;;5012526;28;20483;-73
2022/07/19 08:07:57;;;;;;;11.57;3.27;;;;;;;;;;5012481;28;20448;-73
2022/07/19 08:10:26;;;;;;;9.77;2.00;;;;;;;;;;5012936;28;20453;-74
2022/07/19 08:12:53;;;;;;;10.20;2.00;;;;;;;;;;5012086;28;20449;-73
2022/07/19 08:15:22;;;;;;;9.57;1.87;;;;;;;;;;5012491;28;20513;-73
2022/07/19 08:17:49;;;;;;;9.17;1.63;;;;;;;;;;4998712;28;20467;-73
2022/07/19 08:20:17;;;;;;;9.17;1.40;;;;;;;;;;5011829;28;20450;-73
2022/07/19 08:22:44;;;;;;;9.70;1.70;;;;;;;;;;5011422;28;20449;-73
2022/07/19 08:25:14;;;;;;;10.30;1.90;;;;;;;;;;5012104;28;20940;-73
2022/07/19 08:27:41;;;;;;;10.90;1.90;;;;;;;;;;5007685;28;20441;-72
2022/07/19 08:30:09;;;;;;;9.23;1.60;;;;;;;;;;5003362;28;20798;-72
2022/07/19 08:32:38;;;;;;;8.83;1.47;;;;;;;;;;5011976;28;20539;-72
2022/07/19 08:35:06;;;;;;;9.60;2.07;;;;;;;;;;5012569;28;20448;-72
2022/07/19 08:37:33;;;;;;;9.23;1.70;;;;;;;;;;5000570;28;20559;-72
2022/07/19 08:40:00;;;;;;;10.10;1.80;;;;;;;;;;5012360;28;20453;-72
2022/07/19 08:42:27;;;;;;;9.20;1.87;;;;;;;;;;5013134;28;20932;-73
2022/07/19 08:44:55;;;;;;;9.37;1.90;;;;;;;;;;5014769;28;20454;-74
2022/07/19 08:47:24;;;;;;;11.63;1.93;;;;;;;;;;5015493;28;20452;-73
2022/07/19 08:49:53;;;;;;;8.70;1.53;;;;;;;;;;5012115;28;20487;-73
2022/07/19 08:52:20;;;;;;;9.03;1.80;;;;;;;;;;5012797;28;20877;-75
2022/07/19 08:54:48;;;;;;;8.80;1.70;;;;;;;;;;5013754;28;20474;-73
2022/07/19 09:00:00;;;;;;;9.20;1.70;;;;;;;;;;5013597;28;20446;-70
2022/07/19 09:02:27;;;;;;;9.80;2.03;;;;;;;;;;5004224;28;20531;-73
2022/07/19 09:05:02;;;;;;;9.67;1.97;;;;;;;;;;5012354;28;20539;-72
2022/07/19 09:07:29;;;;;;;9.20;1.80;;;;;;;;;;5011959;28;20450;-72
2022/07/19 09:10:11;;;;;;;9.20;1.80;;;;;;;;;;5011561;28;20456;-72
2022/07/19 09:12:38;;;;;;;9.33;1.90;;;;;;;;;;5011039;28;20460;-71
2022/07/19 09:15:05;;;;;;;9.10;1.77;;;;;;;;;;5011445;28;20547;-71
2022/07/19 09:17:32;;;;;;;9.00;1.77;;;;;;;;;;5011026;28;20979;-71
2022/07/19 09:20:01;;;;;;;9.70;1.80;;;;;;;;;;5010963;28;20454;-72
2022/07/19 09:22:28;;;;;;;8.83;1.90;;;;;;;;;;5011397;28;20452;-71
2022/07/19 09:24:56;;;;;;;9.10;1.60;;;;;;;;;;5011726;28;20468;-72
2022/07/19 09:27:25;;;;;;;9.90;1.73;;;;;;;;;;5011505;28;20460;-71
2022/07/19 09:29:54;;;;;;;8.90;1.73;;;;;;;;;;5010292;28;20996;-71
2022/07/19 09:32:23;;;;;;;9.10;1.90;;;;;;;;;;5011391;28;20444;-72
2022/07/19 09:34:51;;;;;;;11.37;2.13;;;;;;;;;;5010535;28;20454;-72
2022/07/19 09:37:21;;;;;;;10.13;2.00;;;;;;;;;;4999479;28;20842;-72
2022/07/19 09:39:49;;;;;;;8.67;1.70;;;;;;;;;;5010521;28;20464;-74
2022/07/19 09:42:17;;;;;;;9.20;1.50;;;;;;;;;;5011390;28;20745;-73
2022/07/19 09:44:45;;;;;;;9.60;1.97;;;;;;;;;;5010887;28;20452;-73
2022/07/19 09:47:13;;;;;;;9.10;1.90;;;;;;;;;;5011325;28;20452;-73
2022/07/19 09:49:40;;;;;;;15.23;7.87;;;;;;;;;;5010389;28;20456;-73
2022/07/19 09:52:09;;;;;;;9.93;2.90;;;;;;;;;;5006871;28;21018;-73
2022/07/19 09:54:40;;;;;;;9.40;2.27;;;;;;;;;;5001814;28;20780;-73
2022/07/19 09:57:09;;;;;;;9.00;2.27;;;;;;;;;;5011158;28;20499;-73
2022/07/19 09:59:36;;;;;;;8.87;1.93;;;;;;;;;;5010474;28;20458;-73
2022/07/19 10:02:04;;;;;;;10.50;2.37;;;;;;;;;;5011168;28;20447;-73
2022/07/19 10:04:35;;;;;;;8.57;1.90;;;;;;;;;;5010755;28;20615;-72
2022/07/19 10:07:02;;;;;;;9.40;1.97;;;;;;;;;;4985580;28;20448;-73
2022/07/19 10:09:29;;;;;;;8.50;1.70;;;;;;;;;;5010833;28;20474;-73
2022/07/19 10:11:58;;;;;;;9.07;1.90;;;;;;;;;;5011088;28;20506;-74
2022/07/19 10:14:25;;;;;;;8.70;1.80;;;;;;;;;;5010816;28;20966;-73
2022/07/19 10:16:58;;;;;;;8.37;1.90;;;;;;;;;;5010517;28;20491;-73
2022/07/19 10:19:28;;;;;;;8.40;1.77;;;;;;;;;;5011984;28;20514;-73
2022/07/19 10:21:56;;;;;;;8.30;2.03;;;;;;;;;;5014787;28;20923;-73
2022/07/19 10:24:44;;;;;;;8.67;1.90;;;;;;;;;;5014469;28;21038;-73
2022/07/19 10:27:13;;;;;;;9.00;2.23;;;;;;;;;;5008552;28;20208;-73
2022/07/19 10:29:40;;;;;;;10.00;2.63;;;;;;;;;;5013221;28;20447;-73
2022/07/19 10:32:08;;;;;;;9.87;2.70;;;;;;;;;;5014193;28;20452;-73
2022/07/19 10:34:35;;;;;;;9.90;2.40;;;;;;;;;;5013634;28;20463;-73
2022/07/19 10:37:02;;;;;;;11.03;2.20;;;;;;;;;;5002075;28;20307;-73
2022/07/19 10:39:33;;;;;;;10.53;2.10;;;;;;;;;;5006916;28;20592;-74
2022/07/19 10:42:07;;;;;;;9.47;1.80;;;;;;;;;;5008771;28;20664;-73
2022/07/19 10:44:37;;;;;;;8.63;1.97;;;;;;;;;;5013544;28;20291;-74
2022/07/19 10:47:04;;;;;;;8.67;2.00;;;;;;;;;;5014196;28;20201;-73
2022/07/19 10:49:43;;;;;;;8.70;1.93;;;;;;;;;;5013090;28;20204;-73
2022/07/19 10:52:34;;;;;;;9.50;2.07;;;;;;;;;;5013947;28;20205;-73
2022/07/19 10:55:20;;;;;;;9.47;2.30;;;;;;;;;;4994621;28;20512;-73
2022/07/19 10:57:48;;;;;;;8.30;2.00;;;;;;;;;;5013277;28;20614;-73
2022/07/19 11:00:19;;;;;;;8.47;2.00;;;;;;;;;;5014293;28;20219;-73
2022/07/19 11:02:47;;;;;;;9.47;2.50;;;;;;;;;;5013695;28;20568;-73
2022/07/19 11:05:23;;;;;;;9.33;2.43;;;;;;;;;;5013502;28;20209;-73
2022/07/19 11:07:52;;;;;;;9.52;2.17;;;;;;;;;;5012539;28;20239;-74
2022/07/19 11:10:23;;;;;;;9.37;2.00;;;;;;;;;;5000894;28;20208;-74
2022/07/19 11:12:50;;;;;;;8.00;1.92;;;;;;;;;;5012945;28;20474;-73
2022/07/19 11:15:17;;;;;;;8.23;1.95;;;;;;;;;;5013707;28;20205;-73
2022/07/19 11:17:57;;;;;;;9.45;2.20;;;;;;;;;;5012636;28;20247;-73
2022/07/19 11:20:25;;;;;;;8.73;2.13;;;;;;;;;;5013355;28;20285;-74
2022/07/19 11:22:55;;;;;;;8.85;2.10;;;;;;;;;;5012825;28;20205;-73
2022/07/19 11:25:25;;;;;;;8.70;2.05;;;;;;;;;;5013382;28;20620;-74
2022/07/19 11:27:52;;;;;;;10.10;2.40;;;;;;;;;;5012618;28;20719;-74
2022/07/19 11:30:21;;;;;;;8.07;1.75;;;;;;;;;;5002544;28;20209;-74
2022/07/19 11:32:52;;;;;;;8.40;2.10;;;;;;;;;;5010811;28;20197;-73
2022/07/19 11:35:21;;;;;;;8.70;2.47;;;;;;;;;;5011450;28;20201;-73
2022/07/19 11:37:48;;;;;;;9.63;2.35;;;;;;;;;;5002318;28;20221;-73
2022/07/19 11:40:15;;;;;;;8.93;2.45;;;;;;;;;;5013080;28;20539;-73
2022/07/19 11:42:43;;;;;;;8.88;2.30;;;;;;;;;;5012800;28;20558;-74
2022/07/19 11:45:12;;;;;;;8.63;2.17;;;;;;;;;;5013005;28;20251;-73
2022/07/19 11:47:42;;;;;;;8.73;2.10;;;;;;;;;;5012154;28;20319;-74
2022/07/19 11:50:10;;;;;;;9.00;2.40;;;;;;;;;;5013071;28;20664;-74
2022/07/19 11:52:49;;;;;;;8.45;1.80;;;;;;;;;;5012407;28;20197;-74
2022/07/19 11:55:16;;;;;;;9.20;2.20;;;;;;;;;;5012592;28;20201;-74
2022/07/19 11:57:44;;;;;;;8.20;1.60;;;;;;;;;;5011374;28;20258;-73
2022/07/19 12:00:11;;;;;;;11.15;2.20;;;;;;;;;;5012774;28;20209;-73
2022/07/19 12:02:51;;;;;;;8.82;2.08;;;;;;;;;;5012327;28;20618;-74
2022/07/19 12:05:19;;;;;;;9.38;2.42;;;;;;;;;;5012669;28;20577;-74
2022/07/19 12:07:47;;;;;;;9.20;2.30;;;;;;;;;;5011711;28;20204;-73
2022/07/19 12:10:29;;;;;;;8.95;2.15;;;;;;;;;;5012583;28;20200;-73
2022/07/19 12:12:57;;;;;;;9.38;2.47;;;;;;;;;;5012254;28;20208;-74
2022/07/19 12:15:25;;;;;;;8.50;2.13;;;;;;;;;;5012318;28;20731;-74
2022/07/19 12:17:56;;;;;;;9.82;2.00;;;;;;;;;;5011360;28;20264;-73
2022/07/19 12:20:23;;;;;;;9.07;2.05;;;;;;;;;;5002877;28;20224;-73
2022/07/19 12:22:51;;;;;;;9.13;2.22;;;;;;;;;;5008385;28;20211;-73
2022/07/19 12:25:36;;;;;;;9.80;2.70;;;;;;;;;;5012168;28;20197;-73
2022/07/19 12:28:05;;;;;;;9.55;2.25;;;;;;;;;;5010533;28;20224;-73
2022/07/19 12:30:32;;;;;;;10.52;2.47;;;;;;;;;;5010696;28;20283;-71
2022/07/19 12:33:07;;;;;;;9.90;2.20;;;;;;;;;;5011092;28;20296;-73
2022/07/19 12:35:42;;;;;;;9.27;2.22;;;;;;;;;;4995618;28;20208;-73
2022/07/19 12:38:11;;;;;;;10.73;2.50;;;;;;;;;;5003868;28;20208;-73
2022/07/19 12:40:38;;;;;;;10.02;2.90;;;;;;;;;;5010563;28;20192;-73
2022/07/19 12:43:07;;;;;;;9.65;2.58;;;;;;;;;;5010408;28;20293;-73
2022/07/19 12:45:36;;;;;;;9.27;2.53;;;;;;;;;;5009840;28;20203;-73
2022/07/19 12:48:04;;;;;;;10.70;2.08;;;;;;;;;;5010520;28;20243;-72
2022/07/19 12:50:33;;;;;;;9.85;2.40;;;;;;;;;;5009919;28;20732;-72
2022/07/19 12:53:01;;;;;;;9.18;2.20;;;;;;;;;;5010920;28;20267;-72
2022/07/19 12:55:29;;;;;;;10.05;2.60;;;;;;;;;;5010923;28;20650;-73
2022/07/19 12:57:57;;;;;;;9.48;2.30;;;;;;;;;;5010243;28;20709;-73
2022/07/19 13:00:26;;;;;;;9.05;2.30;;;;;;;;;;5010627;28;20201;-73
2022/07/19 13:02:54;;;;;;;9.18;2.58;;;;;;;;;;5009930;28;20209;-72
2022/07/19 13:05:21;;;;;;;9.20;2.10;;;;;;;;;;5011107;28;20209;-74
2022/07/19 13:07:49;;;;;;;9.57;2.30;;;;;;;;;;5012136;28;20205;-73
2022/07/19 13:10:16;;;;;;;8.57;2.00;;;;;;;;;;5012352;28;20551;-73
2022/07/19 13:12:43;;;;;;;8.70;2.20;;;;;;;;;;5010089;28;20571;-73
2022/07/19 13:15:11;;;;;;;9.20;2.28;;;;;;;;;;5002874;28;20209;-72
2022/07/19 13:17:40;;;;;;;8.82;2.13;;;;;;;;;;5003792;28;20715;-72
2022/07/19 13:20:08;;;;;;;8.93;2.30;;;;;;;;;;5010322;28;20292;-73
2022/07/19 13:22:36;;;;;;;10.45;2.90;;;;;;;;;;5009436;28;20204;-73
2022/07/19 13:25:03;;;;;;;9.10;2.78;;;;;;;;;;5010132;28;20204;-72
2022/07/19 13:27:30;;;;;;;9.38;2.30;;;;;;;;;;5009486;28;20205;-70
2022/07/19 13:29:58;;;;;;;9.45;2.38;;;;;;;;;;5010315;28;20196;-72
2022/07/19 13:32:25;;;;;;;9.13;2.83;;;;;;;;;;4996995;28;20206;-73
2022/07/19 13:34:53;;;;;;;9.80;2.40;;;;;;;;;;5009344;28;20211;-72
2022/07/19 13:37:21;;;;;;;9.68;2.60;;;;;;;;;;4997810;28;20343;-72
2022/07/19 13:39:48;;;;;;;9.13;2.80;;;;;;;;;;4999793;28;20201;-72
2022/07/19 13:42:15;;;;;;;10.23;2.50;;;;;;;;;;5006265;28;20631;-72
2022/07/19 13:44:42;;;;;;;8.77;2.30;;;;;;;;;;5009187;28;20201;-72
2022/07/19 13:47:09;;;;;;;9.35;2.25;;;;;;;;;;5009780;28;20560;-72
2022/07/19 13:49:37;;;;;;;10.20;2.42;;;;;;;;;;5010292;28;20205;-73
2022/07/19 13:52:05;;;;;;;9.68;2.33;;;;;;;;;;5010472;28;20205;-72
2022/07/19 13:54:32;;;;;;;8.35;1.85;;;;;;;;;;5011256;28;20201;-71
2022/07/19 13:57:00;;;;;;;9.15;2.30;;;;;;;;;;5013528;28;20327;-73
2022/07/19 13:59:30;;;;;;;8.95;2.15;;;;;;;;;;5013786;28;20299;-73
2022/07/19 14:01:57;;;;;;;9.27;2.33;;;21.80;99.90;;;;;;5013788;28;20651;-71
2022/07/19 14:04:23;;;;;;;10.27;2.60;;;35.90;1.00;;;;;;5013563;28;20205;-72
2022/07/19 14:06:51;;;;;;;10.70;2.45;;;;;;;;;;5012568;28;20319;-71
2022/07/19 14:09:19;;;;;;;9.25;2.35;;;;;;;;;;5013118;28;20212;-71
2022/07/19 14:11:46;;;;;;;10.77;2.20;;;;;;;;;;5013097;28;20200;-71
2022/07/19 14:14:13;;;;;;;10.00;2.33;;;;;;;;;;5013791;28;20196;-71
2022/07/19 14:16:41;;;;;;;9.75;2.60;;;;;;;;;;5013163;28;20204;-71
2022/07/19 14:19:08;;;;;;;8.40;1.92;;;;;;;;;;5013135;28;20225;-72
2022/07/19 14:21:35;;;;;;;10.00;2.90;;;;;;;;;;5012850;28;20215;-73
2022/07/19 14:24:03;;;;;;;8.57;2.38;;;;;;;;;;5013347;28;20200;-72
2022/07/19 14:26:31;;;;;;;8.10;1.83;;;;;;;;;;4987912;28;20205;-71
2022/07/19 14:28:59;;;;;;;8.80;2.63;;;;;;;;;;5013200;28;20209;-72
2022/07/19 14:31:26;;;;;;;12.40;2.40;;;;;;;;;;5013469;28;20205;-72
2022/07/19 14:33:53;;;;;;;8.25;2.38;;;;;;;;;;5012461;28;20209;-72
2022/07/19 14:36:20;;;;;;;8.20;2.22;;;;;;;;;;5003699;28;20320;-72
2022/07/19 14:38:47;;;;;;;10.85;2.35;;;;;;;;;;5010459;28;20231;-72
2022/07/19 14:41:14;;;;;;;8.85;2.40;;;;;;;;;;5013277;28;20682;-73
2022/07/19 14:43:43;;;;;;;9.60;2.45;;;;;;;;;;5012703;28;20562;-72
2022/07/19 14:46:10;;;;;;;8.98;2.55;;;;;;;;;;5012939;28;20331;-72